createdAt,value
2018-04-28T00:00:15.628Z,62.91
2018-04-28T00:02:44.235Z,63.34
2018-04-28T00:05:12.817Z,63.23
2018-04-28T00:07:41.397Z,63.10
2018-04-28T00:10:09.952Z,62.91
2018-04-28T00:12:38.552Z,62.70
2018-04-28T00:15:07.133Z,62.93
2018-04-28T00:17:35.668Z,63.03
2018-04-28T00:20:04.257Z,62.93
2018-04-28T00:22:35.641Z,62.99
2018-04-28T00:28:35.692Z,62.66
2018-04-28T00:31:17.084Z,62.58
2018-04-28T00:33:46.316Z,62.50
2018-04-28T00:36:14.857Z,63.03
2018-04-28T00:38:47.072Z,62.78
2018-04-28T00:41:15.609Z,62.62
2018-04-28T00:43:44.144Z,62.54
2018-04-28T00:46:23.496Z,62.68
2018-04-28T00:49:13.620Z,62.88
2018-04-28T00:51:42.171Z,62.79
2018-04-28T00:54:17.325Z,63.19
2018-04-28T00:56:57.464Z,62.96
2018-04-28T00:59:29.673Z,63.21
2018-04-28T01:01:59.776Z,63.32
2018-04-28T01:04:42.051Z,63.21
2018-04-28T01:07:18.540Z,62.65
2018-04-28T01:09:58.437Z,62.86
2018-04-28T01:12:27.765Z,62.89
2018-04-28T01:15:17.068Z,62.75
2018-04-28T01:17:52.188Z,62.98
2018-04-28T01:23:18.031Z,63.22
2018-04-28T01:25:47.449Z,62.85
2018-04-28T01:31:28.741Z,62.96
2018-04-28T01:34:04.796Z,63.48
2018-04-28T01:36:37.108Z,63.04
2018-04-28T01:39:08.548Z,63.21
2018-04-28T01:42:00.724Z,62.72
2018-04-28T01:44:34.964Z,62.54
2018-04-28T01:47:10.180Z,62.38
2018-04-28T01:49:45.581Z,62.48
2018-04-28T01:52:14.940Z,62.54
2018-04-28T01:54:50.220Z,62.79
2018-04-28T02:00:13.880Z,62.34
2018-04-28T02:02:50.095Z,62.16
2018-04-28T02:05:22.311Z,62.28
2018-04-28T02:07:50.884Z,62.10
2018-04-28T02:13:27.275Z,61.70
2018-04-28T02:15:55.840Z,61.54
2018-04-28T02:18:36.338Z,61.48
2018-04-28T02:27:17.728Z,61.68
2018-04-28T02:29:52.917Z,61.91
2018-04-28T02:32:21.478Z,61.89
2018-04-28T02:37:57.544Z,61.64
2018-04-28T02:43:26.462Z,61.76
2018-04-28T02:46:00.974Z,61.21
2018-04-28T02:48:34.333Z,60.90
2018-04-28T02:51:04.388Z,60.19
2018-04-28T02:53:44.127Z,60.61
2018-04-28T02:56:15.169Z,60.02
2018-04-28T02:58:55.292Z,59.94
2018-04-28T03:01:30.663Z,59.94
2018-04-28T03:03:59.268Z,60.07
2018-04-28T03:06:44.423Z,60.20
2018-04-28T03:09:13.041Z,59.90
2018-04-28T03:11:44.136Z,60.08
2018-04-28T03:14:15.789Z,59.91
2018-04-28T03:16:45.992Z,59.84
2018-04-28T03:19:14.252Z,59.95
2018-04-28T03:21:48.126Z,59.72
2018-04-28T03:27:15.283Z,59.52
2018-04-28T03:29:49.286Z,59.57
2018-04-28T03:32:17.498Z,59.60
2018-04-28T03:34:46.522Z,59.27
2018-04-28T03:37:22.156Z,59.30
2018-04-28T03:40:12.156Z,59.43
2018-04-28T03:42:57.929Z,59.30
2018-04-28T03:48:30.884Z,59.22
2018-04-28T03:51:19.743Z,58.93
2018-04-28T03:56:59.285Z,58.95
2018-04-28T03:59:39.349Z,59.05
2018-04-28T04:02:19.599Z,58.91
2018-04-28T04:04:54.808Z,58.81
2018-04-28T04:07:44.725Z,58.71
2018-04-28T04:10:13.827Z,58.74
2018-04-28T04:12:46.066Z,58.76
2018-04-28T04:15:23.277Z,58.44
2018-04-28T04:24:13.180Z,58.13
2018-04-28T04:26:56.296Z,58.17
2018-04-28T04:32:28.526Z,58.40
2018-04-28T04:35:20.308Z,58.03
2018-04-28T04:37:55.276Z,58.43
2018-04-28T04:43:40.252Z,57.87
2018-04-28T04:49:26.991Z,57.84
2018-04-28T04:55:13.641Z,57.84
2018-04-28T05:01:09.555Z,57.66
2018-04-28T05:03:43.471Z,57.66
2018-04-28T05:06:26.387Z,57.33
2018-04-28T05:08:56.029Z,57.48
2018-04-28T05:14:31.097Z,57.23
2018-04-28T05:20:18.082Z,57.24
2018-04-28T05:22:49.331Z,57.10
2018-04-28T05:25:29.308Z,56.70
2018-04-28T05:28:00.183Z,56.67
2018-04-28T05:33:53.494Z,57.18
2018-04-28T05:39:49.417Z,56.71
2018-04-28T05:45:34.337Z,56.56
2018-04-28T05:48:14.372Z,56.25
2018-04-28T05:51:04.463Z,56.78
2018-04-28T05:56:57.513Z,56.61
2018-04-28T05:59:36.432Z,55.72
2018-04-28T06:05:26.024Z,55.93
2018-04-28T06:08:03.047Z,55.85
2018-04-28T06:10:32.247Z,55.71
2018-04-28T06:13:06.459Z,55.96
2018-04-28T06:15:38.924Z,55.24
2018-04-28T06:21:13.061Z,55.09
2018-04-28T06:23:41.272Z,54.75
2018-04-28T06:26:09.457Z,54.41
2018-04-28T06:28:37.729Z,53.35
2018-04-28T06:31:05.973Z,53.77
2018-04-28T06:33:34.153Z,53.50
2018-04-28T06:36:02.373Z,53.54
2018-04-28T06:38:30.796Z,53.59
2018-04-28T06:40:59.004Z,52.57
2018-04-28T06:43:27.173Z,52.28
2018-04-28T06:45:55.623Z,52.22
2018-04-28T06:48:23.897Z,52.39
2018-04-28T06:50:52.171Z,51.74
2018-04-28T06:53:20.362Z,51.36
2018-04-28T06:55:48.723Z,51.77
2018-04-28T06:58:16.946Z,51.31
2018-04-28T07:00:45.172Z,50.41
2018-04-28T07:03:13.381Z,50.16
2018-04-28T07:05:41.628Z,49.66
2018-04-28T07:08:09.837Z,48.93
2018-04-28T07:10:38.084Z,49.08
2018-04-28T07:13:06.306Z,48.15
2018-04-28T07:15:34.626Z,48.16
2018-04-28T07:18:02.874Z,47.31
2018-04-28T07:20:31.105Z,46.90
2018-04-28T07:22:59.365Z,47.09
2018-04-28T07:25:27.590Z,47.00
2018-04-28T07:27:55.798Z,46.16
2018-04-28T07:30:24.065Z,45.13
2018-04-28T07:32:52.325Z,45.04
2018-04-28T07:35:20.625Z,45.34
2018-04-28T07:37:48.809Z,44.50
2018-04-28T07:40:17.045Z,44.15
2018-04-28T07:42:45.340Z,45.39
2018-04-28T07:45:13.549Z,45.19
2018-04-28T07:47:41.863Z,45.53
2018-04-28T07:50:10.049Z,44.51
2018-04-28T07:52:38.261Z,45.17
2018-04-28T07:55:06.443Z,43.92
2018-04-28T07:57:34.647Z,44.68
2018-04-28T08:00:02.801Z,44.71
2018-04-28T08:02:31.047Z,44.14
2018-04-28T08:04:59.265Z,45.09
2018-04-28T08:07:27.524Z,44.76
2018-04-28T08:09:55.728Z,44.14
2018-04-28T08:12:23.977Z,44.92
2018-04-28T08:14:52.182Z,44.33
2018-04-28T08:17:20.417Z,44.01
2018-04-28T08:19:48.673Z,42.82
2018-04-28T08:22:16.926Z,42.99
2018-04-28T08:24:45.192Z,43.40
2018-04-28T08:27:13.412Z,43.71
2018-04-28T08:29:41.676Z,43.81
2018-04-28T08:32:09.868Z,44.15
2018-04-28T08:34:38.077Z,44.50
2018-04-28T08:37:06.359Z,45.08
2018-04-28T08:39:34.608Z,45.10
2018-04-28T08:42:02.865Z,45.02
2018-04-28T08:44:31.093Z,45.02
2018-04-28T08:46:59.300Z,44.94
2018-04-28T08:49:27.500Z,44.95
2018-04-28T08:51:55.696Z,44.20
2018-04-28T08:54:23.947Z,43.38
2018-04-28T08:56:52.176Z,42.92
2018-04-28T08:59:20.408Z,43.43
2018-04-28T09:01:48.628Z,42.64
2018-04-28T09:04:16.821Z,43.40
2018-04-28T09:06:45.832Z,42.92
2018-04-28T09:09:14.037Z,41.90
2018-04-28T09:11:42.493Z,41.82
2018-04-28T09:14:11.008Z,42.62
2018-04-28T09:16:39.479Z,41.92
2018-04-28T09:19:07.938Z,41.81
2018-04-28T09:21:36.428Z,42.63
2018-04-28T09:24:05.308Z,41.50
2018-04-28T09:26:33.814Z,41.84
2018-04-28T09:29:02.260Z,41.36
2018-04-28T09:31:30.774Z,41.28
2018-04-28T09:33:59.250Z,42.24
2018-04-28T09:36:27.714Z,42.20
2018-04-28T09:38:56.246Z,42.52
2018-04-28T09:41:24.746Z,43.09
2018-04-28T09:43:53.241Z,42.92
2018-04-28T09:46:21.755Z,42.65
2018-04-28T09:48:50.236Z,42.60
2018-04-28T09:51:18.701Z,41.79
2018-04-28T09:53:47.206Z,42.55
2018-04-28T09:56:15.686Z,42.54
2018-04-28T09:58:44.188Z,42.17
2018-04-28T10:01:18.121Z,41.43
2018-04-28T10:03:46.686Z,41.86
2018-04-28T10:06:15.214Z,41.66
2018-04-28T10:08:43.706Z,41.06
2018-04-28T10:11:12.198Z,41.07
2018-04-28T10:13:40.676Z,40.88
2018-04-28T10:16:09.199Z,41.72
2018-04-28T10:18:38.081Z,42.64
2018-04-28T10:21:06.549Z,42.47
2018-04-28T10:23:35.032Z,43.38
2018-04-28T10:26:03.510Z,42.90
2018-04-28T10:28:32.000Z,43.14
2018-04-28T10:31:00.492Z,43.52
2018-04-28T10:33:28.949Z,43.05
2018-04-28T10:35:57.412Z,42.75
2018-04-28T10:38:25.869Z,43.00
2018-04-28T10:40:54.332Z,43.04
2018-04-28T10:43:22.820Z,42.33
2018-04-28T10:45:51.283Z,43.19
2018-04-28T10:48:19.788Z,43.71
2018-04-28T10:50:48.240Z,43.40
2018-04-28T10:53:16.713Z,42.74
2018-04-28T10:55:45.219Z,42.25
2018-04-28T10:58:13.673Z,42.30
2018-04-28T11:00:42.214Z,42.37
2018-04-28T11:03:10.676Z,42.97
2018-04-28T11:05:39.225Z,42.41
2018-04-28T11:08:07.658Z,43.28
2018-04-28T11:10:36.164Z,41.57
2018-04-28T11:13:04.620Z,41.48
2018-04-28T11:15:33.085Z,40.98
2018-04-28T11:18:01.582Z,41.21
2018-04-28T11:20:30.049Z,41.71
2018-04-28T11:22:58.528Z,41.02
2018-04-28T11:25:27.029Z,41.23
2018-04-28T11:27:55.558Z,41.59
2018-04-28T11:30:24.031Z,42.09
2018-04-28T11:32:52.545Z,40.56
2018-04-28T11:35:21.034Z,40.69
2018-04-28T11:37:49.493Z,40.71
2018-04-28T11:40:18.004Z,40.42
2018-04-28T11:42:46.642Z,39.54
2018-04-28T11:45:15.131Z,39.66
2018-04-28T11:47:43.628Z,40.43
2018-04-28T11:50:12.098Z,40.49
2018-04-28T11:52:40.593Z,40.07
2018-04-28T11:55:09.044Z,39.78
2018-04-28T11:57:37.539Z,40.39
2018-04-28T12:00:06.057Z,40.46
2018-04-28T12:02:34.614Z,41.01
2018-04-28T12:05:03.165Z,41.30
2018-04-28T12:07:31.713Z,41.23
2018-04-28T12:10:00.225Z,41.12
2018-04-28T12:12:28.744Z,41.31
2018-04-28T12:14:57.361Z,41.87
2018-04-28T12:17:25.849Z,41.15
2018-04-28T12:19:54.356Z,40.92
2018-04-28T12:22:22.845Z,40.67
2018-04-28T12:24:51.297Z,40.76
2018-04-28T12:27:19.805Z,40.76
2018-04-28T12:29:48.279Z,40.20
2018-04-28T12:32:16.805Z,40.43
2018-04-28T12:34:45.260Z,40.87
2018-04-28T12:37:13.757Z,41.00
2018-04-28T12:39:42.246Z,41.03
2018-04-28T12:42:10.736Z,40.80
2018-04-28T12:44:39.224Z,40.90
2018-04-28T12:47:07.686Z,40.56
2018-04-28T12:49:36.175Z,40.22
2018-04-28T12:52:04.644Z,40.20
2018-04-28T12:54:33.104Z,39.99
2018-04-28T12:57:01.595Z,40.03
2018-04-28T12:59:30.075Z,39.68
2018-04-28T13:01:58.525Z,39.67
2018-04-28T13:04:27.017Z,39.71
2018-04-28T13:06:55.497Z,39.34
2018-04-28T13:09:23.956Z,39.51
2018-04-28T13:11:52.449Z,39.90
2018-04-28T13:14:20.940Z,40.30
2018-04-28T13:16:49.429Z,40.03
2018-04-28T13:19:17.928Z,39.40
2018-04-28T13:21:46.391Z,39.42
2018-04-28T13:24:14.885Z,39.88
2018-04-28T13:26:43.349Z,39.07
2018-04-28T13:29:11.923Z,39.51
2018-04-28T13:31:40.348Z,39.22
2018-04-28T13:34:08.812Z,39.72
2018-04-28T13:36:37.321Z,39.27
2018-04-28T13:39:05.817Z,39.56
2018-04-28T13:41:34.285Z,39.57
2018-04-28T13:44:02.796Z,39.68
2018-04-28T13:46:31.303Z,39.31
2018-04-28T13:48:59.759Z,39.48
2018-04-28T13:51:28.262Z,39.88
2018-04-28T13:53:56.740Z,39.94
2018-04-28T13:56:25.263Z,39.83
2018-04-28T13:58:53.762Z,39.63
2018-04-28T14:01:22.261Z,39.69
2018-04-28T14:03:50.797Z,39.55
2018-04-28T14:06:19.277Z,39.49
2018-04-28T14:08:47.832Z,39.74
2018-04-28T14:11:16.281Z,39.71
2018-04-28T14:13:44.784Z,39.44
2018-04-28T14:16:13.254Z,39.60
2018-04-28T14:18:41.765Z,38.75
2018-04-28T14:21:10.242Z,39.15
2018-04-28T14:23:38.717Z,39.36
2018-04-28T14:26:07.220Z,39.72
2018-04-28T14:28:35.692Z,39.25
2018-04-28T14:31:04.148Z,38.44
2018-04-28T14:33:32.633Z,38.65
2018-04-28T14:36:01.120Z,39.19
2018-04-28T14:38:29.580Z,38.97
2018-04-28T14:40:58.081Z,38.79
2018-04-28T14:43:26.545Z,38.99
2018-04-28T14:45:55.033Z,39.20
2018-04-28T14:48:23.480Z,39.42
2018-04-28T14:50:51.964Z,38.90
2018-04-28T14:53:20.460Z,38.97
2018-04-28T14:55:48.944Z,38.78
2018-04-28T14:58:17.447Z,38.07
2018-04-28T15:00:45.908Z,38.55
2018-04-28T15:03:14.396Z,39.66
2018-04-28T15:05:42.870Z,40.26
2018-04-28T15:08:11.373Z,39.58
2018-04-28T15:10:39.818Z,38.50
2018-04-28T15:13:08.309Z,39.01
2018-04-28T15:15:36.826Z,39.46
2018-04-28T15:18:05.303Z,40.03
2018-04-28T15:20:33.793Z,39.97
2018-04-28T15:23:02.288Z,39.40
2018-04-28T15:25:30.738Z,39.23
2018-04-28T15:27:59.233Z,39.53
2018-04-28T15:30:27.732Z,39.81
2018-04-28T15:32:56.180Z,39.93
2018-04-28T15:35:24.680Z,40.29
2018-04-28T15:37:53.196Z,40.42
2018-04-28T15:40:21.660Z,40.17
2018-04-28T15:42:50.137Z,40.02
2018-04-28T15:45:18.599Z,40.24
2018-04-28T15:47:47.048Z,40.95
2018-04-28T15:50:15.536Z,41.20
2018-04-28T15:52:44.036Z,40.67
2018-04-28T15:55:12.615Z,40.83
2018-04-28T15:57:41.044Z,41.22
2018-04-28T16:00:09.548Z,41.53
2018-04-28T16:02:38.066Z,41.89
2018-04-28T16:05:06.516Z,41.53
2018-04-28T16:07:34.972Z,41.09
2018-04-28T16:10:03.482Z,41.24
2018-04-28T16:12:31.966Z,41.09
2018-04-28T16:15:00.462Z,40.98
2018-04-28T16:17:28.929Z,41.29
2018-04-28T16:19:57.389Z,41.21
2018-04-28T16:22:25.877Z,41.29
2018-04-28T16:24:54.356Z,41.54
2018-04-28T16:27:22.879Z,41.63
2018-04-28T16:29:51.369Z,41.52
2018-04-28T16:32:19.824Z,41.33
2018-04-28T16:34:48.328Z,41.78
2018-04-28T16:37:16.808Z,41.59
2018-04-28T16:39:45.259Z,41.86
2018-04-28T16:42:13.759Z,41.93
2018-04-28T16:44:42.214Z,42.33
2018-04-28T16:47:10.701Z,42.45
2018-04-28T16:49:39.216Z,42.56
2018-04-28T16:52:07.681Z,42.57
2018-04-28T16:54:36.160Z,42.74
2018-04-28T16:57:04.621Z,43.14
2018-04-28T16:59:33.117Z,43.71
2018-04-28T17:02:01.590Z,43.95
2018-04-28T17:04:30.105Z,44.21
2018-04-28T17:06:58.601Z,44.38
2018-04-28T17:09:27.127Z,44.53
2018-04-28T17:11:55.611Z,45.11
2018-04-28T17:14:24.113Z,45.20
2018-04-28T17:16:52.674Z,45.62
2018-04-28T17:19:21.146Z,45.69
2018-04-28T17:21:49.616Z,45.81
2018-04-28T17:24:18.127Z,46.47
2018-04-28T17:26:46.645Z,46.82
2018-04-28T17:29:15.109Z,46.75
2018-04-28T17:31:43.597Z,46.96
2018-04-28T17:34:12.085Z,47.14
2018-04-28T17:36:40.521Z,47.63
2018-04-28T17:39:09.058Z,47.45
2018-04-28T17:41:37.533Z,47.81
2018-04-28T17:44:06.028Z,47.98
2018-04-28T17:46:34.541Z,48.25
2018-04-28T17:49:03.145Z,48.57
2018-04-28T17:51:31.616Z,48.87
2018-04-28T17:54:00.093Z,48.92
2018-04-28T17:56:28.600Z,49.44
2018-04-28T17:58:57.114Z,49.82
2018-04-28T18:01:25.616Z,49.75
2018-04-28T18:03:54.097Z,50.02
2018-04-28T18:06:22.557Z,50.41
2018-04-28T18:08:51.017Z,50.84
2018-04-28T18:11:19.516Z,51.16
2018-04-28T18:13:47.992Z,51.22
2018-04-28T18:16:16.468Z,51.44
2018-04-28T18:18:44.933Z,51.48
2018-04-28T18:21:13.431Z,51.84
2018-04-28T18:23:41.934Z,51.79
2018-04-28T18:26:10.490Z,52.11
2018-04-28T18:28:38.928Z,52.37
2018-04-28T18:31:07.385Z,52.44
2018-04-28T18:33:35.892Z,52.64
2018-04-28T18:36:05.066Z,52.71
2018-04-28T18:38:33.574Z,53.11
2018-04-28T18:41:02.039Z,53.39
2018-04-28T18:43:30.532Z,53.58
2018-04-28T18:45:59.052Z,53.40
2018-04-28T18:48:27.562Z,53.84
2018-04-28T18:50:56.016Z,54.14
2018-04-28T18:53:24.533Z,54.32
2018-04-28T18:55:53.036Z,54.38
2018-04-28T18:58:21.532Z,54.41
2018-04-28T19:00:49.991Z,54.54
2018-04-28T19:03:18.500Z,54.45
2018-04-28T19:05:47.020Z,54.44
2018-04-28T19:08:15.477Z,54.88
2018-04-28T19:10:43.970Z,55.00
2018-04-28T19:13:12.439Z,55.38
2018-04-28T19:15:40.928Z,54.93
2018-04-28T19:18:09.385Z,55.19
2018-04-28T19:20:37.881Z,55.03
2018-04-28T19:23:06.339Z,55.09
2018-04-28T19:25:34.818Z,54.88
2018-04-28T19:28:03.312Z,54.70
2018-04-28T19:30:31.767Z,54.59
2018-04-28T19:33:00.220Z,54.20
2018-04-28T19:35:28.714Z,54.01
2018-04-28T19:37:57.206Z,54.06
2018-04-28T19:40:25.708Z,54.51
2018-04-28T19:42:54.188Z,54.54
2018-04-28T19:45:22.696Z,54.96
2018-04-28T19:47:51.167Z,55.00
2018-04-28T19:50:19.630Z,55.38
2018-04-28T19:52:48.152Z,55.60
2018-04-28T19:55:16.616Z,55.75
2018-04-28T19:57:45.081Z,55.92
2018-04-28T20:00:14.325Z,56.38
2018-04-28T20:02:42.843Z,55.96
2018-04-28T20:05:11.317Z,55.94
2018-04-28T20:07:39.820Z,56.17
2018-04-28T20:10:08.350Z,55.46
2018-04-28T20:12:36.864Z,55.55
2018-04-28T20:15:05.363Z,55.72
2018-04-28T20:17:33.899Z,55.90
2018-04-28T20:20:02.409Z,56.00
2018-04-28T20:22:42.514Z,56.32
2018-04-28T20:25:24.671Z,56.47
2018-04-28T20:27:53.140Z,56.24
2018-04-28T20:30:21.688Z,55.72
2018-04-28T20:32:50.188Z,55.45
2018-04-28T20:35:18.653Z,55.53
2018-04-28T20:37:47.176Z,55.82
2018-04-28T20:40:15.639Z,55.93
2018-04-28T20:42:44.097Z,55.96
2018-04-28T20:45:12.578Z,56.21
2018-04-28T20:47:41.060Z,56.11
2018-04-28T20:50:09.553Z,56.23
2018-04-28T20:52:38.044Z,56.29
2018-04-28T20:55:06.525Z,56.56
2018-04-28T20:57:34.988Z,56.48
2018-04-28T21:00:03.524Z,56.59
2018-04-28T21:02:31.948Z,56.81
2018-04-28T21:05:00.497Z,56.76
2018-04-28T21:07:28.992Z,56.81
2018-04-28T21:09:57.443Z,56.97
2018-04-28T21:12:25.932Z,56.90
2018-04-28T21:14:54.512Z,56.87
2018-04-28T21:17:23.008Z,56.84
2018-04-28T21:19:51.460Z,56.80
2018-04-28T21:22:19.956Z,56.65
2018-04-28T21:24:48.408Z,56.84
2018-04-28T21:27:16.865Z,56.80
2018-04-28T21:29:45.351Z,56.99
2018-04-28T21:32:13.857Z,56.71
2018-04-28T21:34:42.317Z,56.77
2018-04-28T21:37:10.804Z,56.74
2018-04-28T21:39:39.267Z,56.93
2018-04-28T21:42:07.759Z,56.91
2018-04-28T21:44:36.251Z,57.15
2018-04-28T21:47:04.724Z,57.31
2018-04-28T21:49:33.224Z,57.55
2018-04-28T21:52:01.727Z,57.54
2018-04-28T21:54:30.188Z,57.57
2018-04-28T21:56:58.676Z,58.00
2018-04-28T21:59:27.190Z,57.50
2018-04-28T22:01:55.652Z,57.37
2018-04-28T22:04:24.101Z,57.46
2018-04-28T22:06:52.612Z,57.55
2018-04-28T22:09:21.172Z,57.37
2018-04-28T22:11:49.676Z,57.30
2018-04-28T22:14:18.139Z,57.32
2018-04-28T22:16:46.636Z,57.25
2018-04-28T22:19:15.124Z,57.25
2018-04-28T22:21:43.576Z,57.05
2018-04-28T22:24:12.080Z,56.95
2018-04-28T22:26:40.545Z,57.08
2018-04-28T22:29:08.995Z,56.91
2018-04-28T22:31:38.232Z,56.62
2018-04-28T22:34:06.684Z,56.23
2018-04-28T22:36:35.176Z,56.13
2018-04-28T22:39:03.684Z,56.19
2018-04-28T22:41:32.228Z,56.28
2018-04-28T22:44:00.676Z,56.02
2018-04-28T22:46:29.179Z,55.84
2018-04-28T22:48:57.675Z,56.10
2018-04-28T22:51:26.132Z,55.89
2018-04-28T22:53:54.660Z,56.09
2018-04-28T22:56:23.112Z,56.29
2018-04-28T22:58:51.622Z,56.14
2018-04-28T23:01:20.099Z,56.03
2018-04-28T23:03:48.565Z,55.74
2018-04-28T23:06:17.065Z,55.52
2018-04-28T23:08:45.579Z,55.71
2018-04-28T23:11:14.076Z,55.44
2018-04-28T23:13:42.542Z,55.47
2018-04-28T23:16:11.004Z,55.98
2018-04-28T23:18:39.493Z,55.83
2018-04-28T23:21:07.992Z,55.57
2018-04-28T23:23:36.488Z,55.66
2018-04-28T23:26:04.940Z,55.79
2018-04-28T23:28:33.433Z,56.01
2018-04-28T23:31:01.881Z,56.22
2018-04-28T23:33:30.414Z,56.05
2018-04-28T23:35:58.916Z,56.44
2018-04-28T23:38:27.377Z,56.46
2018-04-28T23:40:55.866Z,56.60
2018-04-28T23:43:24.361Z,56.81
2018-04-28T23:45:52.858Z,56.91
2018-04-28T23:48:21.318Z,57.04
2018-04-28T23:50:49.812Z,57.01
2018-04-28T23:53:18.443Z,57.23
2018-04-28T23:55:46.892Z,57.38
2018-04-28T23:58:15.390Z,57.33
